Time;durP1;ratioP1;P1;durP2;ratioP2;P2;SDS_P1;SDS_P2;PMS_P1;PMS_P2;Temp;Humidity;BMP_temperature;BMP_pressure;BME280_temperature;BME280_humidity;BME280_pressure;Samples;Min_cycle;Max_cycle;Signal;HPM_P1;HPM_P2
2022/04/22 00:02:18;;;;;;;3.25;1.60;;;10.80;99.90;;;;;;5021146;28;20112;-78
2022/04/22 00:04:43;;;;;;;3.25;1.13;;;10.80;99.90;;;;;;5037326;28;20488;-78
2022/04/22 00:07:09;;;;;;;5.93;2.83;;;10.80;99.90;;;;;;5036705;28;20035;-77
2022/04/22 00:09:34;;;;;;;3.47;1.95;;;10.80;99.90;;;;;;5037188;28;20044;-78
2022/04/22 00:12:00;;;;;;;3.35;2.05;;;10.80;99.90;;;;;;5035949;28;20037;-78
2022/04/22 00:14:26;;;;;;;3.13;2.03;;;10.70;99.90;;;;;;5020813;28;20137;-77
2022/04/22 00:16:52;;;;;;;2.72;1.65;;;10.70;99.90;;;;;;5038260;28;20091;-78
2022/04/22 00:19:17;;;;;;;3.53;2.03;;;10.70;99.90;;;;;;5037544;28;20025;-78
2022/04/22 00:21:44;;;;;;;4.20;2.53;;;10.60;99.90;;;;;;5030993;28;20500;-77
2022/04/22 00:24:10;;;;;;;3.22;1.65;;;10.60;99.90;;;;;;5036657;28;20033;-78
2022/04/22 00:26:35;;;;;;;3.42;1.88;;;10.60;99.90;;;;;;5036808;28;20086;-77
2022/04/22 00:29:01;;;;;;;3.33;2.08;;;10.60;99.90;;;;;;5036479;28;20037;-77
2022/04/22 00:31:27;;;;;;;3.83;1.65;;;10.50;99.90;;;;;;5009616;28;20509;-78
2022/04/22 00:33:52;;;;;;;3.42;2.13;;;10.50;99.90;;;;;;5037384;28;20045;-78
2022/04/22 00:36:18;;;;;;;4.03;1.80;;;10.50;99.90;;;;;;5020839;28;20033;-78
2022/04/22 00:38:44;;;;;;;2.97;2.25;;;10.40;99.90;;;;;;5038231;28;20721;-78
2022/04/22 00:41:09;;;;;;;3.65;2.03;;;10.40;99.90;;;;;;5017664;28;20057;-78
2022/04/22 00:43:46;;;;;;;4.60;2.30;;;10.30;99.90;;;;;;5037116;28;20029;-78
2022/04/22 00:46:13;;;;;;;2.90;1.50;;;10.30;99.90;;;;;;5037254;28;20029;-77
2022/04/22 00:48:39;;;;;;;2.92;2.08;;;10.30;99.90;;;;;;5029881;28;20029;-78
2022/04/22 00:51:06;;;;;;;4.47;2.10;;;10.30;99.90;;;;;;5013465;28;20094;-78
2022/04/22 00:53:34;;;;;;;4.80;2.28;;;10.30;99.90;;;;;;5015230;28;20500;-77
2022/04/22 00:56:02;;;;;;;2.45;1.50;;;10.20;99.90;;;;;;5037846;28;20048;-78
2022/04/22 00:58:28;;;;;;;3.60;1.60;;;10.20;99.90;;;;;;5036442;28;20029;-78
2022/04/22 01:00:54;;;;;;;2.70;1.60;;;10.10;99.90;;;;;;5036159;28;20033;-77
2022/04/22 01:03:20;;;;;;;4.15;1.95;;;10.10;99.90;;;;;;5037487;28;20035;-78
2022/04/22 01:11:17;;;;;;;3.28;1.50;;;10.00;99.90;;;;;;5038158;28;20051;-78
2022/04/22 01:13:45;;;;;;;3.10;1.83;;;9.90;99.90;;;;;;5038320;28;20385;-78
2022/04/22 01:16:10;;;;;;;4.10;1.92;;;9.90;99.90;;;;;;5020075;28;20585;-78
2022/04/22 01:18:37;;;;;;;4.10;2.17;;;9.80;99.90;;;;;;5035692;28;20120;-78
2022/04/22 01:21:03;;;;;;;3.33;2.00;;;9.80;99.90;;;;;;5035906;28;20040;-77
2022/04/22 01:23:29;;;;;;;5.57;2.03;;;9.70;99.90;;;;;;5018920;28;20482;-77
2022/04/22 01:25:56;;;;;;;5.00;2.55;;;9.60;99.90;;;;;;5035780;28;20036;-78
2022/04/22 01:28:23;;;;;;;3.47;2.20;;;9.50;99.90;;;;;;5035850;28;20582;-77
2022/04/22 01:30:55;;;;;;;3.75;1.67;;;9.50;99.90;;;;;;5037589;28;20047;-78
2022/04/22 01:33:21;;;;;;;3.42;1.90;;;9.40;99.90;;;;;;5035751;28;20025;-77
2022/04/22 01:35:46;;;;;;;3.33;2.10;;;9.40;99.90;;;;;;5036371;28;20449;-77
2022/04/22 01:38:12;;;;;;;4.05;1.88;;;9.40;99.90;;;;;;5029244;28;20029;-78
2022/04/22 01:40:37;;;;;;;4.93;2.78;;;9.30;99.90;;;;;;5035987;28;20045;-77
2022/04/22 01:43:04;;;;;;;3.53;2.35;;;9.20;99.90;;;;;;5018078;28;20039;-77
2022/04/22 01:45:30;;;;;;;4.00;2.60;;;9.20;99.90;;;;;;5031242;28;20378;-78
2022/04/22 01:47:56;;;;;;;4.38;2.45;;;9.10;99.90;;;;;;5030481;28;20037;-77
2022/04/22 01:50:22;;;;;;;3.53;2.10;;;9.10;99.90;;;;;;5036528;28;20059;-78
2022/04/22 01:52:48;;;;;;;4.90;2.47;;;9.00;99.90;;;;;;5038183;28;20500;-78
2022/04/22 01:55:13;;;;;;;3.63;1.85;;;9.00;99.90;;;;;;5039945;28;20041;-78
2022/04/22 01:57:39;;;;;;;3.70;2.13;;;8.90;99.90;;;;;;5034381;28;20840;-77
2022/04/22 02:00:06;;;;;;;3.78;2.17;;;9.00;99.90;;;;;;5039514;28;20021;-77
2022/04/22 02:02:32;;;;;;;2.80;1.73;;;8.90;99.90;;;;;;5023113;28;20029;-77
2022/04/22 02:04:58;;;;;;;2.95;2.15;;;8.90;99.90;;;;;;5034274;28;20401;-78
2022/04/22 02:07:23;;;;;;;3.10;1.73;;;8.90;99.90;;;;;;5041449;28;20025;-77
2022/04/22 02:09:49;;;;;;;3.10;1.83;;;9.00;99.90;;;;;;5041649;28;20486;-77
2022/04/22 02:12:15;;;;;;;3.75;1.95;;;9.00;99.90;;;;;;5033162;28;20043;-78
2022/04/22 02:14:41;;;;;;;3.63;2.35;;;9.10;99.90;;;;;;5022902;28;20043;-77
2022/04/22 02:17:06;;;;;;;3.47;2.00;;;9.10;99.90;;;;;;5042162;28;20044;-78
2022/04/22 02:19:32;;;;;;;4.72;2.10;;;9.00;99.90;;;;;;5042337;28;20035;-77
2022/04/22 02:21:58;;;;;;;4.80;2.55;;;9.00;99.90;;;;;;5033593;28;20074;-77
2022/04/22 02:24:23;;;;;;;2.72;1.65;;;8.90;99.90;;;;;;5044577;28;20040;-78
2022/04/22 02:29:33;;;;;;;3.60;1.70;;;8.90;99.90;;;;;;5057700;28;20079;-77
2022/04/22 02:31:59;;;;;;;3.53;1.88;;;8.80;99.90;;;;;;5023886;28;20064;-77
2022/04/22 02:34:25;;;;;;;4.07;2.10;;;8.80;99.90;;;;;;5039622;28;20059;-77
2022/04/22 02:36:51;;;;;;;3.88;1.55;;;8.80;99.90;;;;;;5034032;28;20037;-78
2022/04/22 02:39:18;;;;;;;6.93;1.92;;;8.70;99.90;;;;;;5034384;28;20075;-77
2022/04/22 02:47:13;;;;;;;3.95;1.90;;;8.70;99.90;;;;;;5040206;28;20029;-78
2022/04/22 02:49:43;;;;;;;3.95;2.05;;;8.70;99.90;;;;;;5039704;28;20175;-77
2022/04/22 02:52:10;;;;;;;3.13;1.63;;;8.70;99.90;;;;;;5034926;28;20037;-78
2022/04/22 02:54:35;;;;;;;2.42;1.10;;;8.70;99.90;;;;;;5054902;28;20037;-78
2022/04/22 02:57:01;;;;;;;2.83;1.40;;;8.70;99.90;;;;;;5021987;28;20029;-79
2022/04/22 02:59:29;;;;;;;4.43;2.00;;;8.70;99.90;;;;;;5039912;28;20067;-77
2022/04/22 03:01:55;;;;;;;3.80;1.63;;;8.70;99.90;;;;;;5033735;28;20381;-77
2022/04/22 03:04:21;;;;;;;3.97;1.70;;;8.70;99.90;;;;;;5024608;28;20060;-77
2022/04/22 03:06:47;;;;;;;2.42;1.55;;;8.80;99.90;;;;;;5039319;28;20456;-77
2022/04/22 03:09:12;;;;;;;3.78;2.30;;;8.80;99.90;;;;;;5038579;28;20033;-77
2022/04/22 03:11:38;;;;;;;2.83;2.00;;;8.70;99.90;;;;;;5032225;28;20520;-78
2022/04/22 03:14:05;;;;;;;4.05;2.15;;;8.80;99.90;;;;;;5032677;28;20041;-77
2022/04/22 03:16:31;;;;;;;4.40;2.15;;;8.80;99.90;;;;;;5035477;28;20041;-77
2022/04/22 03:18:57;;;;;;;2.65;1.40;;;8.80;99.90;;;;;;5038272;28;20033;-77
2022/04/22 03:21:22;;;;;;;3.65;1.77;;;8.80;99.90;;;;;;5039185;28;20033;-77
2022/04/22 03:23:49;;;;;;;3.50;2.20;;;8.80;99.90;;;;;;5054817;28;20037;-78
2022/04/22 03:26:15;;;;;;;3.22;2.20;;;8.80;99.90;;;;;;5032528;28;20112;-77
2022/04/22 03:28:41;;;;;;;6.88;2.90;;;8.80;99.90;;;;;;5038858;28;20402;-77
2022/04/22 03:31:07;;;;;;;3.65;2.33;;;8.80;99.90;;;;;;5041005;28;20557;-77
2022/04/22 03:33:32;;;;;;;4.78;2.38;;;8.80;99.90;;;;;;5021098;28;20036;-78
2022/04/22 03:35:58;;;;;;;5.18;2.65;;;8.70;99.90;;;;;;5039244;28;20112;-77
2022/04/22 03:38:24;;;;;;;3.28;1.75;;;8.80;99.90;;;;;;5039538;28;20039;-77
2022/04/22 03:40:51;;;;;;;3.67;2.53;;;8.80;99.90;;;;;;5037446;28;20041;-77
2022/04/22 03:43:20;;;;;;;3.80;2.47;;;8.80;99.90;;;;;;5037716;28;20057;-77
2022/04/22 03:45:46;;;;;;;6.10;3.35;;;8.80;99.90;;;;;;5031184;28;20033;-78
2022/04/22 03:48:15;;;;;;;5.05;3.08;;;8.80;99.90;;;;;;5023989;28;20823;-78
2022/04/22 03:50:41;;;;;;;5.20;3.03;;;8.70;99.90;;;;;;5039038;28;20658;-77
2022/04/22 03:53:11;;;;;;;5.07;3.10;;;8.80;99.90;;;;;;5038461;28;20595;-77
2022/04/22 03:55:38;;;;;;;6.63;3.35;;;8.80;99.90;;;;;;5038696;28;20056;-78
2022/04/22 03:58:10;;;;;;;4.15;2.72;;;8.70;99.90;;;;;;5032306;28;20032;-78
2022/04/22 04:00:44;;;;;;;4.45;2.15;;;8.70;99.90;;;;;;5039050;28;20031;-77
2022/04/22 04:03:11;;;;;;;5.00;2.30;;;8.70;99.90;;;;;;5040248;28;20028;-78
2022/04/22 04:05:38;;;;;;;4.50;3.03;;;8.70;99.90;;;;;;5020703;28;20051;-77
2022/04/22 04:08:05;;;;;;;3.97;2.83;;;8.60;99.90;;;;;;5038926;28;20033;-77
2022/04/22 04:16:00;;;;;;;3.65;2.70;;;8.50;99.90;;;;;;5038160;28;20189;-78
2022/04/22 04:18:31;;;;;;;5.47;2.67;;;8.50;99.90;;;;;;5020731;28;20481;-78
2022/04/22 04:23:43;;;;;;;3.95;2.67;;;8.50;99.90;;;;;;5040765;28;20722;-77
2022/04/22 04:26:09;;;;;;;4.80;2.97;;;8.50;99.90;;;;;;5037645;28;20088;-77
2022/04/22 04:28:36;;;;;;;5.10;2.45;;;8.50;99.90;;;;;;5038883;28;20115;-77
2022/04/22 04:31:03;;;;;;;4.43;3.28;;;8.60;99.90;;;;;;5039100;28;20145;-77
2022/04/22 04:33:29;;;;;;;5.63;2.90;;;8.60;99.90;;;;;;5036791;28;20024;-77
2022/04/22 04:35:55;;;;;;;5.57;2.60;;;8.60;99.90;;;;;;5031117;28;20056;-77
2022/04/22 04:38:22;;;;;;;5.50;2.53;;;8.60;99.90;;;;;;5020698;28;20037;-77
2022/04/22 04:40:48;;;;;;;4.32;2.67;;;8.70;99.90;;;;;;5039099;28;20039;-77
2022/04/22 04:43:14;;;;;;;6.47;3.40;;;8.70;99.90;;;;;;5030183;28;20036;-77
2022/04/22 04:45:40;;;;;;;6.07;3.10;;;8.70;99.90;;;;;;5030869;28;20025;-77
2022/04/22 04:48:07;;;;;;;4.72;3.00;;;8.70;99.90;;;;;;5037386;28;20044;-77
2022/04/22 04:50:32;;;;;;;4.63;2.92;;;8.70;99.90;;;;;;5037149;28;20049;-77
2022/04/22 04:52:58;;;;;;;5.07;3.42;;;8.70;99.90;;;;;;5053398;28;20694;-77
2022/04/22 04:55:24;;;;;;;4.63;3.25;;;8.60;99.90;;;;;;5014314;28;20063;-77
2022/04/22 04:57:50;;;;;;;4.90;2.90;;;8.60;99.90;;;;;;5009999;28;20037;-77
2022/04/22 05:00:20;;;;;;;4.43;3.28;;;8.60;99.90;;;;;;5033037;28;20029;-77
2022/04/22 05:02:46;;;;;;;3.55;2.63;;;8.70;99.90;;;;;;5020911;28;20049;-77
2022/04/22 05:05:12;;;;;;;5.93;4.10;;;8.70;99.90;;;;;;5034844;28;20086;-78
2022/04/22 05:07:57;;;;;;;5.85;4.07;;;8.80;99.90;;;;;;5035110;28;20024;-77
2022/04/22 05:10:26;;;;;;;5.13;3.03;;;8.80;99.90;;;;;;5030508;28;20453;-78
2022/04/22 05:12:52;;;;;;;4.40;3.42;;;8.80;99.90;;;;;;5036543;28;20064;-78
2022/04/22 05:15:18;;;;;;;7.45;3.67;;;8.90;99.90;;;;;;5029587;28;20037;-78
2022/04/22 05:17:47;;;;;;;4.65;2.78;;;8.90;99.90;;;;;;5034440;28;20040;-77
2022/04/22 05:20:14;;;;;;;6.22;3.95;;;8.90;99.90;;;;;;5033258;28;20052;-77
2022/04/22 05:22:40;;;;;;;6.68;3.70;;;8.90;99.90;;;;;;5037677;28;20074;-77
2022/04/22 05:25:07;;;;;;;6.47;4.03;;;9.00;99.90;;;;;;5035587;28;20492;-78
2022/04/22 05:27:33;;;;;;;4.20;3.75;;;9.00;99.90;;;;;;5020608;28;20636;-78
2022/04/22 05:32:47;;;;;;;6.60;4.88;;;9.00;99.90;;;;;;5037205;28;20036;-78
2022/04/22 05:35:15;;;;;;;6.75;5.75;;;8.90;99.90;;;;;;5034545;28;20531;-77
2022/04/22 05:37:48;;;;;;;6.47;5.20;;;8.90;99.90;;;;;;5036433;28;20098;-77
2022/04/22 05:40:16;;;;;;;5.50;4.88;;;9.00;99.90;;;;;;5037330;28;20044;-77
2022/04/22 05:42:44;;;;;;;5.00;4.25;;;9.00;99.90;;;;;;5035055;28;20020;-77
2022/04/22 05:45:11;;;;;;;8.30;7.43;;;9.00;99.90;;;;;;5037886;28;20037;-77
2022/04/22 05:47:37;;;;;;;7.35;5.97;;;9.10;99.90;;;;;;5028113;28;20029;-77
2022/04/22 05:50:05;;;;;;;6.47;5.30;;;9.10;99.90;;;;;;5036878;28;20211;-78
2022/04/22 05:52:35;;;;;;;8.40;6.28;;;9.20;99.90;;;;;;5035545;28;20032;-77
2022/04/22 05:55:02;;;;;;;7.20;5.88;;;9.30;99.90;;;;;;5034705;28;20401;-77
2022/04/22 05:57:29;;;;;;;7.32;6.47;;;9.40;99.90;;;;;;5025810;28;20444;-78
2022/04/22 05:59:55;;;;;;;6.50;5.40;;;9.40;99.90;;;;;;5034729;28;20599;-78
2022/04/22 06:02:21;;;;;;;8.35;6.90;;;9.50;99.90;;;;;;5009094;28;20419;-78
2022/04/22 06:04:46;;;;;;;7.78;6.72;;;9.60;99.90;;;;;;5036994;28;20473;-75
2022/04/22 06:07:12;;;;;;;10.05;7.07;;;9.60;99.90;;;;;;5016957;28;20361;-76
2022/04/22 06:12:22;;;;;;;9.25;7.75;;;9.80;99.90;;;;;;5036221;28;20067;-78
2022/04/22 06:14:48;;;;;;;7.43;6.05;;;9.80;99.90;;;;;;5031361;28;20455;-76
2022/04/22 06:17:14;;;;;;;8.90;7.13;;;10.00;99.90;;;;;;5013549;28;20128;-76
2022/04/22 06:19:39;;;;;;;8.68;7.55;;;10.10;99.90;;;;;;5034647;28;20122;-76
2022/04/22 06:22:05;;;;;;;10.23;7.78;;;10.20;99.90;;;;;;5031214;28;20115;-76
2022/04/22 06:24:30;;;;;;;7.65;6.78;;;10.30;99.90;;;;;;5035159;28;20497;-75
2022/04/22 06:26:56;;;;;;;8.23;6.90;;;10.60;99.90;;;;;;5028633;28;20033;-77
2022/04/22 06:29:22;;;;;;;10.95;7.57;;;10.80;99.90;;;;;;5037542;28;20419;-77
2022/04/22 06:31:48;;;;;;;9.90;7.78;;;11.00;99.90;;;;;;5018391;28;20053;-76
2022/04/22 06:34:14;;;;;;;9.70;7.63;;;11.10;99.90;;;;;;5018669;28;20082;-76
2022/04/22 06:36:40;;;;;;;9.02;7.32;;;11.20;99.90;;;;;;5002576;28;20037;-76
2022/04/22 06:39:06;;;;;;;7.95;6.63;;;11.10;99.90;;;;;;5038151;28;20477;-76
2022/04/22 06:47:02;;;;;;;9.23;7.53;;;11.60;99.90;;;;;;5031562;28;20037;-76
2022/04/22 06:49:27;;;;;;;10.57;8.30;;;11.60;99.90;;;;;;5038438;28;20033;-77
2022/04/22 06:51:53;;;;;;;9.45;7.80;;;11.60;99.90;;;;;;5005558;28;20044;-76
2022/04/22 06:54:19;;;;;;;9.13;7.55;;;11.80;99.90;;;;;;5036770;28;20086;-76
2022/04/22 06:56:49;;;;;;;9.65;8.20;;;11.90;99.90;;;;;;5037086;28;22043;-77
2022/04/22 06:59:19;;;;;;;9.38;8.13;;;12.10;99.90;;;;;;5038833;28;20055;-75
2022/04/22 07:01:45;;;;;;;8.05;7.05;;;12.20;99.90;;;;;;5019394;28;20040;-76
2022/04/22 07:04:12;;;;;;;9.05;7.10;;;12.20;99.90;;;;;;5038847;28;20042;-77
2022/04/22 07:06:38;;;;;;;7.43;6.30;;;12.30;99.90;;;;;;5022955;28;20043;-76
2022/04/22 07:09:04;;;;;;;9.95;7.97;;;12.40;99.90;;;;;;5037471;28;20052;-77
2022/04/22 07:11:30;;;;;;;8.88;7.85;;;12.30;99.90;;;;;;5022545;28;20127;-76
2022/04/22 07:14:00;;;;;;;10.30;7.32;;;12.50;99.90;;;;;;5031991;28;20060;-75
2022/04/22 07:16:27;;;;;;;10.05;7.88;;;12.50;99.90;;;;;;5036561;28;20397;-76
2022/04/22 07:18:53;;;;;;;9.05;6.90;;;12.40;99.90;;;;;;5055113;28;20073;-77
2022/04/22 07:21:22;;;;;;;9.18;7.00;;;12.50;99.90;;;;;;5014682;28;20128;-77
2022/04/22 07:23:48;;;;;;;8.67;7.27;;;12.90;99.90;;;;;;5022073;28;20486;-77
2022/04/22 07:26:17;;;;;;;7.32;6.57;;;13.00;99.90;;;;;;5039936;28;20731;-76
2022/04/22 07:28:46;;;;;;;8.35;7.30;;;12.90;99.90;;;;;;5031942;28;20042;-77
2022/04/22 07:31:12;;;;;;;8.45;7.38;;;12.90;99.90;;;;;;5038544;28;20135;-76
2022/04/22 07:33:38;;;;;;;9.38;5.93;;;13.10;99.90;;;;;;5033059;28;20389;-76
2022/04/22 07:36:04;;;;;;;9.48;7.15;;;13.10;99.90;;;;;;5037816;28;20653;-76
2022/04/22 07:38:30;;;;;;;9.18;6.93;;;13.10;99.90;;;;;;5039267;28;20033;-76
2022/04/22 07:40:55;;;;;;;7.80;6.75;;;13.20;99.90;;;;;;5037167;28;20029;-76
2022/04/22 07:48:53;;;;;;;7.95;5.72;;;13.40;99.90;;;;;;5015845;28;20454;-75
2022/04/22 07:51:19;;;;;;;6.57;5.70;;;13.70;99.90;;;;;;4999913;28;20044;-76
2022/04/22 07:53:45;;;;;;;8.40;6.80;;;13.90;99.90;;;;;;5029279;28;20086;-76
2022/04/22 07:56:10;;;;;;;6.03;5.43;;;14.20;99.90;;;;;;5036957;28;20061;-76
2022/04/22 07:58:37;;;;;;;6.45;4.93;;;14.20;99.90;;;;;;5019119;28;20037;-75
2022/04/22 08:01:03;;;;;;;7.88;6.80;;;13.80;99.90;;;;;;5036233;28;20037;-76
2022/04/22 08:03:28;;;;;;;8.77;7.43;;;13.60;99.90;;;;;;5035380;28;20025;-75
2022/04/22 08:05:54;;;;;;;9.25;6.32;;;13.80;99.90;;;;;;5037483;28;20492;-76
2022/04/22 08:08:20;;;;;;;9.27;6.20;;;13.90;99.90;;;;;;5035092;28;20570;-76
2022/04/22 08:10:46;;;;;;;7.97;6.30;;;14.10;99.90;;;;;;5029041;28;20044;-76
2022/04/22 08:13:11;;;;;;;9.45;6.68;;;14.10;99.90;;;;;;5034324;28;20047;-76
2022/04/22 08:15:37;;;;;;;8.13;6.68;;;14.00;99.90;;;;;;5035553;28;20040;-75
2022/04/22 08:18:04;;;;;;;7.97;6.15;;;14.00;99.90;;;;;;5034717;28;20041;-75
2022/04/22 08:20:32;;;;;;;7.85;6.22;;;14.20;99.90;;;;;;5035375;28;20036;-77
2022/04/22 08:23:01;;;;;;;7.50;5.70;;;14.10;99.90;;;;;;5031314;28;21904;-75
2022/04/22 08:25:27;;;;;;;6.72;4.72;;;14.00;99.90;;;;;;5028833;28;20059;-76
2022/04/22 08:27:53;;;;;;;7.65;6.43;;;14.00;99.90;;;;;;5034234;28;20025;-76
2022/04/22 08:30:19;;;;;;;8.25;5.55;;;14.00;99.90;;;;;;5035198;28;20055;-75
2022/04/22 08:32:45;;;;;;;5.93;4.72;;;14.10;99.90;;;;;;5029256;28;20130;-75
2022/04/22 08:35:10;;;;;;;7.40;5.18;;;14.30;99.90;;;;;;5035571;28;20165;-77
2022/04/22 08:37:37;;;;;;;7.47;4.47;;;14.60;99.90;;;;;;5035372;28;20029;-76
2022/04/22 08:40:07;;;;;;;6.75;4.35;;;14.90;99.90;;;;;;5033364;28;20762;-76
2022/04/22 08:42:38;;;;;;;6.27;3.80;;;15.20;99.90;;;;;;5027815;28;20427;-76
2022/04/22 08:45:05;;;;;;;5.55;4.95;;;15.70;99.90;;;;;;5034334;28;20292;-76
2022/04/22 08:50:19;;;;;;;6.05;4.25;;;15.50;99.90;;;;;;5033606;28;20059;-75
2022/04/22 08:52:57;;;;;;;5.07;3.72;;;15.20;99.90;;;;;;5003194;28;20044;-75
2022/04/22 08:55:24;;;;;;;5.60;3.97;;;15.30;99.90;;;;;;5036154;28;20110;-76
2022/04/22 08:57:51;;;;;;;4.78;3.95;;;15.20;99.90;;;;;;5017187;28;20029;-77
2022/04/22 09:00:22;;;;;;;4.90;3.72;;;15.00;99.90;;;;;;5035388;28;20051;-77
2022/04/22 09:02:47;;;;;;;6.05;3.78;;;15.10;99.90;;;;;;5033749;28;20044;-77
2022/04/22 09:05:13;;;;;;;6.20;4.40;;;15.50;99.90;;;;;;5017465;28;20405;-77
2022/04/22 09:07:43;;;;;;;4.68;4.15;;;15.70;99.90;;;;;;5035454;28;20116;-76
2022/04/22 09:10:12;;;;;;;;;;;15.70;99.90;;;;;;5012631;28;20115;-76
2022/04/22 09:12:42;;;;;;;5.35;3.92;;;15.80;99.90;;;;;;5034070;28;20496;-77
2022/04/22 09:15:10;;;;;;;3.80;3.10;;;15.80;99.90;;;;;;5033019;28;20041;-76
2022/04/22 09:17:36;;;;;;;5.88;4.20;;;15.90;99.90;;;;;;5035834;28;20025;-77
2022/04/22 09:20:04;;;;;;;5.45;4.28;;;15.90;99.90;;;;;;5028115;28;20033;-78
2022/04/22 09:22:34;;;;;;;4.85;3.83;;;15.90;99.90;;;;;;5012738;28;20037;-77
2022/04/22 09:25:00;;;;;;;;;;;15.80;99.90;;;;;;5008373;28;20081;-77
2022/04/22 09:27:37;;;;;;;3.45;2.42;;;16.20;99.90;;;;;;5036790;28;20315;-76
2022/04/22 09:30:09;;;;;;;4.60;2.78;;;16.50;99.90;;;;;;5028163;28;20119;-78
2022/04/22 09:32:39;;;;;;;4.70;2.75;;;16.60;99.90;;;;;;5035652;28;20032;-77
2022/04/22 09:35:09;;;;;;;;;;;16.80;99.90;;;;;;5009449;28;20394;-76
2022/04/22 09:43:37;;;;;;;4.57;2.85;;;16.40;99.90;;;;;;5037141;28;20032;-77
2022/04/22 09:46:04;;;;;;;5.22;2.72;;;16.30;99.90;;;;;;5035607;28;20033;-76
2022/04/22 09:48:44;;;;;;;5.28;2.65;;;16.40;99.90;;;;;;5040782;28;20625;-76
2022/04/22 09:51:30;;;;;;;4.68;2.58;;;16.50;99.90;;;;;;5036297;28;20048;-77
2022/04/22 09:54:09;;;;;;;3.58;1.55;;;16.90;99.90;;;;;;5026895;28;20036;-77
2022/04/22 09:56:37;;;;;;;3.10;1.42;;;17.60;99.90;;;;;;5036502;28;20041;-77
2022/04/22 09:59:23;;;;;;;2.67;1.90;;;17.60;99.90;;;;;;5029205;28;20112;-77
2022/04/22 10:01:49;;;;;;;3.38;2.00;;;17.20;99.90;;;;;;5032932;28;20408;-76
2022/04/22 10:04:19;;;;;;;4.50;1.90;;;16.70;99.90;;;;;;5034715;28;20028;-76
2022/04/22 10:06:46;;;;;;;3.97;2.20;;;16.20;99.90;;;;;;5035638;28;20038;-77
2022/04/22 10:09:14;;;;;;;5.50;2.10;;;16.10;99.90;;;;;;5018159;28;20757;-79
2022/04/22 10:11:44;;;;;;;5.07;2.35;;;16.20;99.90;;;;;;5018811;28;20049;-78
2022/04/22 10:14:11;;;;;;;3.97;2.47;;;16.00;99.90;;;;;;5032079;28;20032;-77
2022/04/22 10:16:37;;;;;;;2.85;2.35;;;16.10;99.90;;;;;;5023682;28;20135;-77
2022/04/22 10:19:05;;;;;;;4.05;1.98;;;16.20;99.90;;;;;;5040471;28;20029;-76
2022/04/22 10:21:31;;;;;;;3.45;1.63;;;16.00;99.90;;;;;;5039382;28;20567;-77
2022/04/22 10:23:58;;;;;;;7.63;2.45;;;15.90;99.90;;;;;;5032343;28;20124;-76
2022/04/22 10:26:28;;;;;;;2.80;1.10;;;16.40;99.90;;;;;;5038986;28;20485;-77
2022/04/22 10:28:54;;;;;;;3.75;1.40;;;17.10;99.90;;;;;;5038232;28;20508;-76
2022/04/22 10:31:22;;;;;;;3.25;1.25;;;17.40;99.90;;;;;;5032378;28;20057;-76
2022/04/22 10:33:48;;;;;;;2.47;1.30;;;17.30;99.90;;;;;;5039399;28;20565;-76
2022/04/22 10:36:15;;;;;;;2.58;1.45;;;16.90;99.90;;;;;;5039169;28;20116;-76
2022/04/22 10:38:43;;;;;;;3.05;1.60;;;16.50;99.90;;;;;;5040246;28;20086;-79
2022/04/22 10:41:18;;;;;;;3.60;1.63;;;16.30;99.90;;;;;;5022055;28;20040;-78
2022/04/22 10:49:37;;;;;;;2.25;1.00;;;17.50;99.90;;;;;;5024918;28;20496;-77
2022/04/22 10:52:14;;;;;;;3.30;1.52;;;17.40;99.90;;;;;;5053285;28;20064;-78
2022/04/22 10:54:52;;;;;;;3.83;1.77;;;17.30;99.90;;;;;;5035652;28;20029;-77
2022/04/22 10:57:18;;;;;;;3.50;1.42;;;17.60;99.90;;;;;;5039792;28;20542;-77
2022/04/22 10:59:45;;;;;;;2.08;1.00;;;17.20;99.90;;;;;;5040131;28;20466;-76
2022/04/22 11:02:29;;;;;;;2.95;1.08;;;17.00;99.90;;;;;;5039912;28;20147;-76
2022/04/22 11:05:25;;;;;;;1.98;1.02;;;16.90;99.90;;;;;;5037523;28;20457;-76
2022/04/22 11:07:51;;;;;;;4.22;1.23;;;16.80;99.90;;;;;;5038447;28;20029;-77
2022/04/22 11:10:21;;;;;;;3.13;1.05;;;16.70;99.90;;;;;;5055121;28;20048;-76
2022/04/22 11:12:54;;;;;;;1.67;0.80;;;16.50;99.90;;;;;;5038802;28;20123;-76
2022/04/22 11:15:42;;;;;;;3.25;1.10;;;16.40;99.90;;;;;;5021245;28;20553;-77
2022/04/22 11:18:08;;;;;;;4.38;0.80;;;16.40;99.90;;;;;;5038859;28;20036;-75
2022/04/22 11:20:38;;;;;;;3.13;1.42;;;16.40;99.90;;;;;;5038725;28;20029;-76
2022/04/22 11:23:09;;;;;;;3.35;1.30;;;16.20;99.90;;;;;;5030169;28;20070;-76
2022/04/22 11:25:34;;;;;;;2.60;1.30;;;16.00;99.90;;;;;;5014902;28;20037;-76
2022/04/22 11:28:02;;;;;;;1.85;0.80;;;16.00;99.90;;;;;;5038217;28;20043;-75
2022/04/22 11:30:28;;;;;;;2.65;1.05;;;16.20;99.90;;;;;;5038982;28;20114;-76
2022/04/22 11:33:10;;;;;;;4.25;1.40;;;16.10;99.90;;;;;;5038690;28;20044;-75
2022/04/22 11:35:35;;;;;;;2.83;1.25;;;16.20;99.90;;;;;;5032654;28;20126;-76
2022/04/22 11:38:07;;;;;;;3.17;1.25;;;16.10;99.90;;;;;;5053284;28;20057;-76
2022/04/22 11:40:40;;;;;;;2.97;1.60;;;16.00;99.90;;;;;;5037294;28;20075;-77
2022/04/22 11:43:07;;;;;;;2.00;0.77;;;16.10;99.90;;;;;;5031755;28;20806;-78
2022/04/22 11:45:35;;;;;;;2.63;1.23;;;16.40;99.90;;;;;;5038777;28;20040;-76
2022/04/22 11:48:18;;;;;;;2.67;0.95;;;16.40;99.90;;;;;;5038888;28;20060;-77
2022/04/22 11:50:45;;;;;;;3.08;1.20;;;16.40;99.90;;;;;;5010161;28;20049;-78
2022/04/22 11:53:18;;;;;;;2.88;0.70;;;16.20;99.90;;;;;;5036222;28;20040;-78
2022/04/22 11:55:47;;;;;;;1.50;0.70;;;16.10;99.90;;;;;;5020836;28;20056;-77
2022/04/22 11:58:14;;;;;;;2.75;1.48;;;16.20;99.90;;;;;;5037112;28;20032;-78
2022/04/22 12:06:13;;;;;;;2.17;0.88;;;16.20;99.90;;;;;;5029857;28;20032;-78
2022/04/22 12:08:50;;;;;;;2.58;1.10;;;16.40;99.90;;;;;;5038364;28;20554;-76
2022/04/22 12:11:16;;;;;;;1.77;0.88;;;16.50;99.90;;;;;;5036258;28;20039;-79
2022/04/22 12:13:42;;;;;;;3.55;0.85;;;16.30;99.90;;;;;;5037897;28;20127;-78
2022/04/22 12:16:08;;;;;;;3.00;1.02;;;16.50;99.90;;;;;;5035764;28;20105;-78
2022/04/22 12:18:35;;;;;;;4.00;1.60;;;17.00;99.90;;;;;;5038668;28;20711;-78
2022/04/22 12:21:02;;;;;;;2.20;1.10;;;17.10;99.90;;;;;;5029658;28;20436;-75
2022/04/22 12:23:42;;;;;;;4.57;1.23;;;17.60;99.90;;;;;;5016845;28;20037;-78
2022/04/22 12:26:19;;;;;;;2.45;0.70;;;17.90;99.90;;;;;;5053173;28;20037;-78
2022/04/22 12:28:56;;;;;;;3.53;0.80;;;18.40;99.90;;;;;;5030960;28;20828;-76
2022/04/22 12:31:22;;;;;;;2.22;0.93;;;18.80;99.90;;;;;;5038358;28;20068;-75
2022/04/22 12:33:58;;;;;;;3.38;1.40;;;18.30;99.90;;;;;;5034871;28;20075;-75
2022/04/22 12:36:24;;;;;;;2.53;0.90;;;18.10;99.90;;;;;;5037067;28;20115;-74
2022/04/22 12:38:50;;;;;;;3.15;0.70;;;17.80;99.90;;;;;;5037187;28;20037;-75
2022/04/22 12:41:23;;;;;;;2.92;0.70;;;17.50;99.90;;;;;;5030503;28;20503;-75
2022/04/22 12:43:54;;;;;;;2.90;0.82;;;17.50;99.90;;;;;;5036177;28;20056;-75
2022/04/22 12:52:23;;;;;;;1.75;0.77;;;17.90;99.90;;;;;;5036999;28;20136;-77
2022/04/22 12:54:50;;;;;;;1.83;0.77;;;18.40;99.90;;;;;;5036581;28;20029;-75
2022/04/22 12:57:18;;;;;;;1.80;0.60;;;18.50;99.90;;;;;;5052371;28;20343;-75
2022/04/22 12:59:53;;;;;;;1.60;0.60;;;18.80;99.90;;;;;;5030506;28;20543;-75
2022/04/22 13:02:26;;;;;;;1.75;0.80;;;18.90;99.90;;;;;;5013480;28;20029;-75
2022/04/22 13:05:00;;;;;;;1.60;0.60;;;18.30;99.90;;;;;;5019045;28;20044;-76
2022/04/22 13:07:41;;;;;;;1.95;0.70;;;17.90;99.90;;;;;;5037308;28;20037;-75
2022/04/22 13:10:10;;;;;;;1.83;0.70;;;17.60;99.90;;;;;;5036189;28;20036;-76
2022/04/22 13:12:39;;;;;;;2.27;0.97;;;17.30;99.90;;;;;;5036825;28;20303;-77
2022/04/22 13:15:10;;;;;;;2.53;0.80;;;17.20;99.90;;;;;;5021606;28;20024;-76
2022/04/22 13:17:40;;;;;;;2.95;0.68;;;17.10;99.90;;;;;;5018350;28;20315;-76
2022/04/22 13:20:07;;;;;;;1.73;0.80;;;17.30;99.90;;;;;;5035236;28;20029;-78
2022/04/22 13:22:36;;;;;;;1.67;0.80;;;17.30;99.90;;;;;;5035972;28;20420;-79
2022/04/22 13:25:03;;;;;;;2.33;0.87;;;17.30;99.90;;;;;;5036104;28;20175;-76
2022/04/22 13:27:29;;;;;;;2.42;0.70;;;17.40;99.90;;;;;;5014013;28;20370;-78
2022/04/22 13:29:54;;;;;;;2.08;0.80;;;17.50;99.90;;;;;;5033474;28;20044;-78
2022/04/22 13:32:20;;;;;;;2.67;0.60;;;17.50;99.90;;;;;;5037186;28;20037;-75
2022/04/22 13:34:46;;;;;;;2.10;0.85;;;17.50;99.90;;;;;;5034657;28;20033;-77
2022/04/22 13:37:11;;;;;;;2.60;0.85;;;17.40;99.90;;;;;;5031393;28;20489;-75
2022/04/22 13:39:38;;;;;;;2.20;0.63;;;17.50;99.90;;;;;;5034875;28;20031;-76
2022/04/22 13:42:04;;;;;;;2.42;0.75;;;17.60;99.90;;;;;;5034788;28;20060;-77
2022/04/22 13:52:45;;;;;;;2.17;0.82;;;17.20;99.90;;;;;;5036786;28;20033;-78
2022/04/22 13:55:12;;;;;;;3.00;0.60;;;17.10;99.90;;;;;;5035913;28;20489;-78
2022/04/22 13:57:37;;;;;;;2.53;0.77;;;17.10;99.90;;;;;;5031684;28;20032;-77
2022/04/22 14:00:04;;;;;;;2.42;0.90;;;17.00;99.90;;;;;;5027275;28;20040;-76
2022/04/22 14:02:30;;;;;;;2.08;0.70;;;17.00;99.90;;;;;;5035608;28;20035;-75
2022/04/22 14:04:56;;;;;;;1.50;0.80;;;17.00;99.90;;;;;;5020963;28;20025;-75
2022/04/22 14:07:22;;;;;;;2.28;0.77;;;16.90;99.90;;;;;;5035059;28;20043;-78